sensor_id;sensor_type;location;lat;lon;timestamp;P1;durP1;ratioP1;P2;durP2;ratioP2
47103;SDS011;32853;52.164;5.400;2023-04-15T00:02:17;10.67;;;4.03;;
47103;SDS011;32853;52.164;5.400;2023-04-15T00:04:47;8.55;;;3.63;;
47103;SDS011;32853;52.164;5.400;2023-04-15T00:07:15;8.48;;;3.95;;
47103;SDS011;32853;52.164;5.400;2023-04-15T00:09:43;7.15;;;3.25;;
47103;SDS011;32853;52.164;5.400;2023-04-15T00:12:14;9.50;;;3.25;;
47103;SDS011;32853;52.164;5.400;2023-04-15T00:14:39;9.32;;;3.67;;
47103;SDS011;32853;52.164;5.400;2023-04-15T00:17:04;10.38;;;4.07;;
47103;SDS011;32853;52.164;5.400;2023-04-15T00:19:30;9.10;;;4.20;;
47103;SDS011;32853;52.164;5.400;2023-04-15T00:21:56;8.90;;;3.60;;
47103;SDS011;32853;52.164;5.400;2023-04-15T00:24:22;9.02;;;3.35;;
47103;SDS011;32853;52.164;5.400;2023-04-15T00:26:47;9.52;;;4.05;;
47103;SDS011;32853;52.164;5.400;2023-04-15T00:29:13;7.27;;;3.37;;
47103;SDS011;32853;52.164;5.400;2023-04-15T00:31:39;7.70;;;3.63;;
47103;SDS011;32853;52.164;5.400;2023-04-15T00:34:04;7.13;;;3.72;;
47103;SDS011;32853;52.164;5.400;2023-04-15T00:36:33;9.33;;;3.57;;
47103;SDS011;32853;52.164;5.400;2023-04-15T00:38:59;8.40;;;3.33;;
47103;SDS011;32853;52.164;5.400;2023-04-15T00:41:26;6.78;;;2.97;;
47103;SDS011;32853;52.164;5.400;2023-04-15T00:43:54;11.60;;;4.00;;
47103;SDS011;32853;52.164;5.400;2023-04-15T00:46:19;7.88;;;3.60;;
47103;SDS011;32853;52.164;5.400;2023-04-15T00:48:47;8.27;;;3.70;;
47103;SDS011;32853;52.164;5.400;2023-04-15T00:51:13;8.57;;;3.50;;
47103;SDS011;32853;52.164;5.400;2023-04-15T00:53:40;6.88;;;3.42;;
47103;SDS011;32853;52.164;5.400;2023-04-15T00:56:14;7.95;;;3.65;;
47103;SDS011;32853;52.164;5.400;2023-04-15T00:58:40;11.45;;;4.13;;
47103;SDS011;32853;52.164;5.400;2023-04-15T01:01:08;9.35;;;3.92;;
47103;SDS011;32853;52.164;5.400;2023-04-15T01:03:33;7.90;;;4.25;;
47103;SDS011;32853;52.164;5.400;2023-04-15T01:06:03;6.67;;;3.50;;
47103;SDS011;32853;52.164;5.400;2023-04-15T01:08:32;6.95;;;3.30;;
47103;SDS011;32853;52.164;5.400;2023-04-15T01:11:00;7.20;;;3.30;;
47103;SDS011;32853;52.164;5.400;2023-04-15T01:13:27;6.88;;;3.50;;
47103;SDS011;32853;52.164;5.400;2023-04-15T01:15:53;13.02;;;3.90;;
47103;SDS011;32853;52.164;5.400;2023-04-15T01:18:20;6.32;;;3.38;;
47103;SDS011;32853;52.164;5.400;2023-04-15T01:20:53;8.07;;;3.80;;
47103;SDS011;32853;52.164;5.400;2023-04-15T01:23:20;7.43;;;4.05;;
47103;SDS011;32853;52.164;5.400;2023-04-15T01:25:56;7.10;;;3.70;;
47103;SDS011;32853;52.164;5.400;2023-04-15T01:28:23;7.82;;;3.47;;
47103;SDS011;32853;52.164;5.400;2023-04-15T01:30:49;10.17;;;3.83;;
47103;SDS011;32853;52.164;5.400;2023-04-15T01:33:15;9.45;;;3.20;;
47103;SDS011;32853;52.164;5.400;2023-04-15T01:35:40;13.07;;;3.77;;
47103;SDS011;32853;52.164;5.400;2023-04-15T01:38:08;6.07;;;3.50;;
47103;SDS011;32853;52.164;5.400;2023-04-15T01:40:36;8.68;;;3.88;;
47103;SDS011;32853;52.164;5.400;2023-04-15T01:43:10;12.00;;;4.18;;
47103;SDS011;32853;52.164;5.400;2023-04-15T01:45:36;8.80;;;3.80;;
47103;SDS011;32853;52.164;5.400;2023-04-15T01:48:01;8.65;;;3.55;;
47103;SDS011;32853;52.164;5.400;2023-04-15T01:50:44;6.60;;;3.15;;
47103;SDS011;32853;52.164;5.400;2023-04-15T01:53:11;9.48;;;4.65;;
47103;SDS011;32853;52.164;5.400;2023-04-15T01:55:37;7.25;;;3.63;;
47103;SDS011;32853;52.164;5.400;2023-04-15T01:58:03;10.32;;;3.55;;
47103;SDS011;32853;52.164;5.400;2023-04-15T02:00:28;9.07;;;3.63;;
47103;SDS011;32853;52.164;5.400;2023-04-15T02:02:55;10.35;;;4.50;;
47103;SDS011;32853;52.164;5.400;2023-04-15T02:05:25;9.88;;;3.22;;
47103;SDS011;32853;52.164;5.400;2023-04-15T02:07:59;8.30;;;3.75;;
47103;SDS011;32853;52.164;5.400;2023-04-15T02:10:25;9.50;;;4.23;;
47103;SDS011;32853;52.164;5.400;2023-04-15T02:12:50;9.47;;;3.70;;
47103;SDS011;32853;52.164;5.400;2023-04-15T02:15:15;13.27;;;3.37;;
47103;SDS011;32853;52.164;5.400;2023-04-15T02:17:42;6.43;;;3.30;;
47103;SDS011;32853;52.164;5.400;2023-04-15T02:20:19;11.63;;;3.17;;
47103;SDS011;32853;52.164;5.400;2023-04-15T02:22:45;8.55;;;3.70;;
47103;SDS011;32853;52.164;5.400;2023-04-15T02:25:12;7.35;;;2.92;;
47103;SDS011;32853;52.164;5.400;2023-04-15T02:27:38;7.00;;;3.63;;
47103;SDS011;32853;52.164;5.400;2023-04-15T02:32:33;9.68;;;3.40;;
47103;SDS011;32853;52.164;5.400;2023-04-15T02:35:02;8.77;;;3.90;;
47103;SDS011;32853;52.164;5.400;2023-04-15T02:37:44;8.90;;;3.78;;
47103;SDS011;32853;52.164;5.400;2023-04-15T02:40:10;7.35;;;3.95;;
47103;SDS011;32853;52.164;5.400;2023-04-15T02:42:37;9.47;;;3.90;;
47103;SDS011;32853;52.164;5.400;2023-04-15T02:45:03;13.48;;;4.40;;
47103;SDS011;32853;52.164;5.400;2023-04-15T02:47:30;6.50;;;4.10;;
47103;SDS011;32853;52.164;5.400;2023-04-15T02:49:55;12.23;;;3.43;;
47103;SDS011;32853;52.164;5.400;2023-04-15T02:52:26;6.77;;;3.80;;
47103;SDS011;32853;52.164;5.400;2023-04-15T02:54:52;12.25;;;3.83;;
47103;SDS011;32853;52.164;5.400;2023-04-15T02:57:21;6.75;;;3.72;;
47103;SDS011;32853;52.164;5.400;2023-04-15T02:59:50;7.03;;;3.88;;
47103;SDS011;32853;52.164;5.400;2023-04-15T03:02:17;8.25;;;3.72;;
47103;SDS011;32853;52.164;5.400;2023-04-15T03:04:46;7.90;;;3.90;;
47103;SDS011;32853;52.164;5.400;2023-04-15T03:07:11;8.40;;;3.85;;
47103;SDS011;32853;52.164;5.400;2023-04-15T03:09:42;7.50;;;3.67;;
47103;SDS011;32853;52.164;5.400;2023-04-15T03:12:08;7.20;;;4.25;;
47103;SDS011;32853;52.164;5.400;2023-04-15T03:14:33;6.65;;;3.63;;
47103;SDS011;32853;52.164;5.400;2023-04-15T03:17:09;13.95;;;5.07;;
47103;SDS011;32853;52.164;5.400;2023-04-15T03:19:36;7.10;;;3.83;;
47103;SDS011;32853;52.164;5.400;2023-04-15T03:22:02;7.15;;;3.67;;
47103;SDS011;32853;52.164;5.400;2023-04-15T03:24:31;14.65;;;4.80;;
47103;SDS011;32853;52.164;5.400;2023-04-15T03:26:56;7.60;;;3.88;;
47103;SDS011;32853;52.164;5.400;2023-04-15T03:29:23;8.00;;;4.05;;
47103;SDS011;32853;52.164;5.400;2023-04-15T03:31:59;9.98;;;4.32;;
47103;SDS011;32853;52.164;5.400;2023-04-15T03:34:25;7.15;;;3.75;;
47103;SDS011;32853;52.164;5.400;2023-04-15T03:36:50;6.60;;;4.00;;
47103;SDS011;32853;52.164;5.400;2023-04-15T03:39:16;7.90;;;4.18;;
47103;SDS011;32853;52.164;5.400;2023-04-15T03:41:41;7.55;;;4.15;;
47103;SDS011;32853;52.164;5.400;2023-04-15T03:47:02;10.27;;;3.95;;
47103;SDS011;32853;52.164;5.400;2023-04-15T03:49:28;9.98;;;4.70;;
47103;SDS011;32853;52.164;5.400;2023-04-15T03:51:53;8.10;;;4.50;;
47103;SDS011;32853;52.164;5.400;2023-04-15T03:54:24;8.83;;;4.47;;
47103;SDS011;32853;52.164;5.400;2023-04-15T03:56:50;7.63;;;4.18;;
47103;SDS011;32853;52.164;5.400;2023-04-15T03:59:15;8.10;;;4.43;;
47103;SDS011;32853;52.164;5.400;2023-04-15T04:01:41;10.40;;;4.18;;
47103;SDS011;32853;52.164;5.400;2023-04-15T04:04:06;8.82;;;4.30;;
47103;SDS011;32853;52.164;5.400;2023-04-15T04:09:24;7.43;;;4.40;;
47103;SDS011;32853;52.164;5.400;2023-04-15T04:11:52;10.38;;;4.95;;
47103;SDS011;32853;52.164;5.400;2023-04-15T04:14:18;7.80;;;4.80;;
47103;SDS011;32853;52.164;5.400;2023-04-15T04:16:43;9.03;;;4.53;;
47103;SDS011;32853;52.164;5.400;2023-04-15T04:19:09;17.58;;;4.72;;
47103;SDS011;32853;52.164;5.400;2023-04-15T04:21:35;7.37;;;4.40;;
47103;SDS011;32853;52.164;5.400;2023-04-15T04:24:00;7.53;;;4.60;;
47103;SDS011;32853;52.164;5.400;2023-04-15T04:26:32;10.87;;;4.57;;
47103;SDS011;32853;52.164;5.400;2023-04-15T04:28:58;9.80;;;4.72;;
47103;SDS011;32853;52.164;5.400;2023-04-15T04:31:24;9.88;;;4.28;;
47103;SDS011;32853;52.164;5.400;2023-04-15T04:33:49;9.68;;;4.97;;
47103;SDS011;32853;52.164;5.400;2023-04-15T04:36:15;10.18;;;4.47;;
47103;SDS011;32853;52.164;5.400;2023-04-15T04:41:09;10.32;;;4.63;;
47103;SDS011;32853;52.164;5.400;2023-04-15T04:43:34;8.40;;;4.80;;
47103;SDS011;32853;52.164;5.400;2023-04-15T04:46:00;11.43;;;5.28;;
47103;SDS011;32853;52.164;5.400;2023-04-15T04:48:28;10.70;;;5.10;;
47103;SDS011;32853;52.164;5.400;2023-04-15T04:50:54;10.05;;;4.82;;
47103;SDS011;32853;52.164;5.400;2023-04-15T04:53:24;9.40;;;4.43;;
47103;SDS011;32853;52.164;5.400;2023-04-15T04:56:00;10.68;;;4.50;;
47103;SDS011;32853;52.164;5.400;2023-04-15T04:58:27;9.75;;;5.10;;
47103;SDS011;32853;52.164;5.400;2023-04-15T05:00:52;9.55;;;4.63;;
47103;SDS011;32853;52.164;5.400;2023-04-15T05:03:18;7.83;;;4.73;;
47103;SDS011;32853;52.164;5.400;2023-04-15T05:05:43;10.10;;;5.27;;
47103;SDS011;32853;52.164;5.400;2023-04-15T05:08:09;9.53;;;5.20;;
47103;SDS011;32853;52.164;5.400;2023-04-15T05:10:35;8.40;;;4.88;;
47103;SDS011;32853;52.164;5.400;2023-04-15T05:13:00;11.50;;;5.45;;
47103;SDS011;32853;52.164;5.400;2023-04-15T05:15:26;9.00;;;5.47;;
47103;SDS011;32853;52.164;5.400;2023-04-15T05:17:59;16.90;;;6.80;;
47103;SDS011;32853;52.164;5.400;2023-04-15T05:20:24;8.75;;;5.60;;
47103;SDS011;32853;52.164;5.400;2023-04-15T05:22:58;8.90;;;5.53;;
47103;SDS011;32853;52.164;5.400;2023-04-15T05:25:24;7.97;;;5.68;;
47103;SDS011;32853;52.164;5.400;2023-04-15T05:27:55;12.13;;;5.55;;
47103;SDS011;32853;52.164;5.400;2023-04-15T05:30:31;10.32;;;4.80;;
47103;SDS011;32853;52.164;5.400;2023-04-15T05:32:59;9.73;;;5.07;;
47103;SDS011;32853;52.164;5.400;2023-04-15T05:35:35;11.15;;;5.82;;
47103;SDS011;32853;52.164;5.400;2023-04-15T05:38:11;12.00;;;5.33;;
47103;SDS011;32853;52.164;5.400;2023-04-15T05:40:37;7.68;;;5.13;;
47103;SDS011;32853;52.164;5.400;2023-04-15T05:43:16;8.67;;;5.50;;
47103;SDS011;32853;52.164;5.400;2023-04-15T05:45:43;9.68;;;5.65;;
47103;SDS011;32853;52.164;5.400;2023-04-15T05:48:08;11.25;;;5.35;;
47103;SDS011;32853;52.164;5.400;2023-04-15T05:50:33;10.23;;;5.40;;
47103;SDS011;32853;52.164;5.400;2023-04-15T05:53:02;13.75;;;6.15;;
47103;SDS011;32853;52.164;5.400;2023-04-15T05:55:31;11.73;;;5.78;;
47103;SDS011;32853;52.164;5.400;2023-04-15T05:57:56;8.83;;;5.60;;
47103;SDS011;32853;52.164;5.400;2023-04-15T06:00:24;8.73;;;5.50;;
47103;SDS011;32853;52.164;5.400;2023-04-15T06:02:55;11.35;;;5.97;;
47103;SDS011;32853;52.164;5.400;2023-04-15T06:05:30;8.73;;;5.60;;
47103;SDS011;32853;52.164;5.400;2023-04-15T06:08:07;9.07;;;6.03;;
47103;SDS011;32853;52.164;5.400;2023-04-15T06:10:34;12.52;;;7.00;;
47103;SDS011;32853;52.164;5.400;2023-04-15T06:13:01;10.65;;;5.75;;
47103;SDS011;32853;52.164;5.400;2023-04-15T06:15:27;8.95;;;6.15;;
47103;SDS011;32853;52.164;5.400;2023-04-15T06:17:56;11.63;;;6.13;;
47103;SDS011;32853;52.164;5.400;2023-04-15T06:20:21;11.43;;;6.05;;
47103;SDS011;32853;52.164;5.400;2023-04-15T06:22:49;10.93;;;6.38;;
47103;SDS011;32853;52.164;5.400;2023-04-15T06:25:14;13.90;;;6.82;;
47103;SDS011;32853;52.164;5.400;2023-04-15T06:27:43;11.20;;;5.93;;
47103;SDS011;32853;52.164;5.400;2023-04-15T06:30:18;13.60;;;7.30;;
47103;SDS011;32853;52.164;5.400;2023-04-15T06:32:46;9.48;;;5.85;;
47103;SDS011;32853;52.164;5.400;2023-04-15T06:35:12;8.57;;;6.15;;
47103;SDS011;32853;52.164;5.400;2023-04-15T06:37:40;12.23;;;7.10;;
47103;SDS011;32853;52.164;5.400;2023-04-15T06:40:05;17.63;;;8.55;;
47103;SDS011;32853;52.164;5.400;2023-04-15T06:42:34;11.30;;;7.03;;
47103;SDS011;32853;52.164;5.400;2023-04-15T06:45:00;12.55;;;6.85;;
47103;SDS011;32853;52.164;5.400;2023-04-15T06:47:28;10.87;;;7.33;;
47103;SDS011;32853;52.164;5.400;2023-04-15T06:49:54;11.67;;;7.43;;
47103;SDS011;32853;52.164;5.400;2023-04-15T06:52:23;12.53;;;7.47;;
47103;SDS011;32853;52.164;5.400;2023-04-15T06:54:49;12.80;;;7.40;;
47103;SDS011;32853;52.164;5.400;2023-04-15T06:57:17;11.93;;;7.37;;
47103;SDS011;32853;52.164;5.400;2023-04-15T06:59:42;12.63;;;7.40;;
47103;SDS011;32853;52.164;5.400;2023-04-15T07:02:16;12.27;;;7.20;;
47103;SDS011;32853;52.164;5.400;2023-04-15T07:04:42;13.82;;;7.57;;
47103;SDS011;32853;52.164;5.400;2023-04-15T07:07:08;12.70;;;7.43;;
47103;SDS011;32853;52.164;5.400;2023-04-15T07:09:34;12.88;;;7.25;;
47103;SDS011;32853;52.164;5.400;2023-04-15T07:11:59;9.10;;;6.57;;
47103;SDS011;32853;52.164;5.400;2023-04-15T07:14:25;9.77;;;6.57;;
47103;SDS011;32853;52.164;5.400;2023-04-15T07:16:50;12.50;;;7.30;;
47103;SDS011;32853;52.164;5.400;2023-04-15T07:19:15;11.87;;;6.80;;
47103;SDS011;32853;52.164;5.400;2023-04-15T07:21:41;9.67;;;6.70;;
47103;SDS011;32853;52.164;5.400;2023-04-15T07:24:06;10.23;;;6.17;;
47103;SDS011;32853;52.164;5.400;2023-04-15T07:26:32;12.55;;;6.80;;
47103;SDS011;32853;52.164;5.400;2023-04-15T07:28:58;10.47;;;6.87;;
47103;SDS011;32853;52.164;5.400;2023-04-15T07:31:23;11.33;;;6.63;;
47103;SDS011;32853;52.164;5.400;2023-04-15T07:33:48;9.93;;;6.10;;
47103;SDS011;32853;52.164;5.400;2023-04-15T07:36:14;9.57;;;5.90;;
47103;SDS011;32853;52.164;5.400;2023-04-15T07:38:41;11.00;;;6.30;;
47103;SDS011;32853;52.164;5.400;2023-04-15T07:41:09;10.95;;;5.53;;
47103;SDS011;32853;52.164;5.400;2023-04-15T07:43:34;9.17;;;5.40;;
47103;SDS011;32853;52.164;5.400;2023-04-15T07:46:01;10.32;;;5.30;;
47103;SDS011;32853;52.164;5.400;2023-04-15T07:48:26;8.55;;;5.53;;
47103;SDS011;32853;52.164;5.400;2023-04-15T07:50:53;8.73;;;5.90;;
47103;SDS011;32853;52.164;5.400;2023-04-15T07:53:19;9.60;;;5.18;;
47103;SDS011;32853;52.164;5.400;2023-04-15T07:55:45;9.60;;;5.30;;
47103;SDS011;32853;52.164;5.400;2023-04-15T07:58:10;9.17;;;5.23;;
47103;SDS011;32853;52.164;5.400;2023-04-15T08:00:42;10.73;;;5.23;;
47103;SDS011;32853;52.164;5.400;2023-04-15T08:03:09;6.87;;;5.03;;
47103;SDS011;32853;52.164;5.400;2023-04-15T08:05:35;8.23;;;5.20;;
47103;SDS011;32853;52.164;5.400;2023-04-15T08:08:00;7.87;;;5.10;;
47103;SDS011;32853;52.164;5.400;2023-04-15T08:10:28;8.63;;;4.90;;
47103;SDS011;32853;52.164;5.400;2023-04-15T08:12:56;7.22;;;4.47;;
47103;SDS011;32853;52.164;5.400;2023-04-15T08:15:22;7.15;;;3.20;;
47103;SDS011;32853;52.164;5.400;2023-04-15T08:17:47;6.30;;;3.33;;
47103;SDS011;32853;52.164;5.400;2023-04-15T08:20:13;7.63;;;3.47;;
47103;SDS011;32853;52.164;5.400;2023-04-15T08:22:39;6.63;;;3.85;;
47103;SDS011;32853;52.164;5.400;2023-04-15T08:25:05;5.25;;;3.25;;
47103;SDS011;32853;52.164;5.400;2023-04-15T08:27:42;6.45;;;3.42;;
47103;SDS011;32853;52.164;5.400;2023-04-15T08:30:08;4.35;;;2.63;;
47103;SDS011;32853;52.164;5.400;2023-04-15T08:32:33;5.30;;;2.47;;
47103;SDS011;32853;52.164;5.400;2023-04-15T08:35:04;4.90;;;3.13;;
47103;SDS011;32853;52.164;5.400;2023-04-15T08:37:30;8.48;;;3.38;;
47103;SDS011;32853;52.164;5.400;2023-04-15T08:39:58;7.05;;;3.75;;
47103;SDS011;32853;52.164;5.400;2023-04-15T08:42:43;9.38;;;4.22;;
47103;SDS011;32853;52.164;5.400;2023-04-15T08:45:15;7.05;;;4.38;;
47103;SDS011;32853;52.164;5.400;2023-04-15T08:47:42;6.95;;;3.67;;
47103;SDS011;32853;52.164;5.400;2023-04-15T08:50:16;5.80;;;3.63;;
47103;SDS011;32853;52.164;5.400;2023-04-15T08:52:43;6.40;;;3.20;;
47103;SDS011;32853;52.164;5.400;2023-04-15T08:55:13;6.15;;;3.60;;
47103;SDS011;32853;52.164;5.400;2023-04-15T08:57:39;6.13;;;2.78;;
47103;SDS011;32853;52.164;5.400;2023-04-15T09:00:05;4.20;;;2.80;;
47103;SDS011;32853;52.164;5.400;2023-04-15T09:05:01;8.05;;;2.67;;
47103;SDS011;32853;52.164;5.400;2023-04-15T09:07:28;5.17;;;3.20;;
47103;SDS011;32853;52.164;5.400;2023-04-15T09:09:58;4.10;;;2.50;;
47103;SDS011;32853;52.164;5.400;2023-04-15T09:12:29;4.87;;;2.20;;
47103;SDS011;32853;52.164;5.400;2023-04-15T09:14:56;5.13;;;2.53;;
47103;SDS011;32853;52.164;5.400;2023-04-15T09:17:23;5.82;;;2.38;;
47103;SDS011;32853;52.164;5.400;2023-04-15T09:19:58;4.55;;;2.22;;
47103;SDS011;32853;52.164;5.400;2023-04-15T09:22:32;4.35;;;2.10;;
47103;SDS011;32853;52.164;5.400;2023-04-15T09:24:57;5.03;;;2.30;;
47103;SDS011;32853;52.164;5.400;2023-04-15T09:27:29;5.43;;;2.00;;
47103;SDS011;32853;52.164;5.400;2023-04-15T09:29:55;3.10;;;1.77;;
47103;SDS011;32853;52.164;5.400;2023-04-15T09:32:20;3.37;;;1.87;;
47103;SDS011;32853;52.164;5.400;2023-04-15T09:34:48;4.53;;;2.73;;
47103;SDS011;32853;52.164;5.400;2023-04-15T09:37:14;4.22;;;2.38;;
47103;SDS011;32853;52.164;5.400;2023-04-15T09:39:55;5.55;;;3.08;;
47103;SDS011;32853;52.164;5.400;2023-04-15T09:42:23;4.15;;;2.53;;
47103;SDS011;32853;52.164;5.400;2023-04-15T09:44:53;7.07;;;2.35;;
47103;SDS011;32853;52.164;5.400;2023-04-15T09:47:25;4.97;;;2.60;;
47103;SDS011;32853;52.164;5.400;2023-04-15T09:49:55;6.35;;;3.05;;
47103;SDS011;32853;52.164;5.400;2023-04-15T09:52:21;6.03;;;2.90;;
47103;SDS011;32853;52.164;5.400;2023-04-15T09:54:48;5.67;;;2.80;;
47103;SDS011;32853;52.164;5.400;2023-04-15T09:57:17;5.95;;;3.25;;
47103;SDS011;32853;52.164;5.400;2023-04-15T09:59:43;7.80;;;3.30;;
47103;SDS011;32853;52.164;5.400;2023-04-15T10:02:19;5.50;;;2.58;;
47103;SDS011;32853;52.164;5.400;2023-04-15T10:04:48;5.05;;;2.70;;
47103;SDS011;32853;52.164;5.400;2023-04-15T10:07:14;5.22;;;2.08;;
47103;SDS011;32853;52.164;5.400;2023-04-15T10:09:44;3.42;;;1.38;;
47103;SDS011;32853;52.164;5.400;2023-04-15T10:12:12;4.00;;;1.52;;
47103;SDS011;32853;52.164;5.400;2023-04-15T10:14:52;2.92;;;1.40;;
47103;SDS011;32853;52.164;5.400;2023-04-15T10:17:23;1.73;;;1.13;;
47103;SDS011;32853;52.164;5.400;2023-04-15T10:19:52;5.10;;;1.75;;
47103;SDS011;32853;52.164;5.400;2023-04-15T10:22:25;3.63;;;2.10;;
47103;SDS011;32853;52.164;5.400;2023-04-15T10:24:52;3.88;;;1.77;;
47103;SDS011;32853;52.164;5.400;2023-04-15T10:27:21;4.97;;;2.20;;
47103;SDS011;32853;52.164;5.400;2023-04-15T10:29:57;3.17;;;2.00;;
47103;SDS011;32853;52.164;5.400;2023-04-15T10:32:25;6.45;;;2.33;;
47103;SDS011;32853;52.164;5.400;2023-04-15T10:34:53;4.00;;;2.10;;
47103;SDS011;32853;52.164;5.400;2023-04-15T10:37:41;2.65;;;1.60;;
47103;SDS011;32853;52.164;5.400;2023-04-15T10:40:43;2.88;;;1.60;;
47103;SDS011;32853;52.164;5.400;2023-04-15T10:43:02;3.08;;;1.58;;
47103;SDS011;32853;52.164;5.400;2023-04-15T10:45:36;4.15;;;1.40;;
47103;SDS011;32853;52.164;5.400;2023-04-15T10:48:03;3.97;;;1.48;;
47103;SDS011;32853;52.164;5.400;2023-04-15T10:50:33;3.22;;;1.55;;
47103;SDS011;32853;52.164;5.400;2023-04-15T10:53:01;3.67;;;1.90;;
47103;SDS011;32853;52.164;5.400;2023-04-15T10:55:30;2.78;;;1.30;;
47103;SDS011;32853;52.164;5.400;2023-04-15T10:57:58;3.07;;;1.50;;
47103;SDS011;32853;52.164;5.400;2023-04-15T11:00:28;2.20;;;1.30;;
47103;SDS011;32853;52.164;5.400;2023-04-15T11:03:12;4.32;;;1.42;;
47103;SDS011;32853;52.164;5.400;2023-04-15T11:08:05;2.95;;;1.40;;
47103;SDS011;32853;52.164;5.400;2023-04-15T11:15:38;3.90;;;1.20;;
47103;SDS011;32853;52.164;5.400;2023-04-15T11:20:34;1.60;;;1.02;;
47103;SDS011;32853;52.164;5.400;2023-04-15T11:23:00;3.38;;;1.33;;
47103;SDS011;32853;52.164;5.400;2023-04-15T11:25:33;3.80;;;1.20;;
47103;SDS011;32853;52.164;5.400;2023-04-15T11:28:04;5.82;;;1.70;;
47103;SDS011;32853;52.164;5.400;2023-04-15T11:30:41;3.50;;;1.33;;
47103;SDS011;32853;52.164;5.400;2023-04-15T11:33:10;3.28;;;1.83;;
47103;SDS011;32853;52.164;5.400;2023-04-15T11:35:40;3.43;;;1.70;;
47103;SDS011;32853;52.164;5.400;2023-04-15T11:38:10;3.37;;;1.30;;
47103;SDS011;32853;52.164;5.400;2023-04-15T11:40:39;4.17;;;1.40;;
47103;SDS011;32853;52.164;5.400;2023-04-15T11:43:10;5.75;;;1.65;;
47103;SDS011;32853;52.164;5.400;2023-04-15T11:45:48;2.63;;;1.27;;
47103;SDS011;32853;52.164;5.400;2023-04-15T11:48:19;3.00;;;1.20;;
47103;SDS011;32853;52.164;5.400;2023-04-15T11:51:02;4.07;;;1.40;;
47103;SDS011;32853;52.164;5.400;2023-04-15T11:53:45;3.95;;;1.13;;
47103;SDS011;32853;52.164;5.400;2023-04-15T11:56:19;4.43;;;1.47;;
47103;SDS011;32853;52.164;5.400;2023-04-15T11:58:52;3.53;;;1.10;;
47103;SDS011;32853;52.164;5.400;2023-04-15T12:03:59;1.92;;;1.00;;
47103;SDS011;32853;52.164;5.400;2023-04-15T12:06:30;3.75;;;0.88;;
47103;SDS011;32853;52.164;5.400;2023-04-15T12:11:32;2.00;;;0.82;;
47103;SDS011;32853;52.164;5.400;2023-04-15T12:14:05;2.67;;;0.90;;
47103;SDS011;32853;52.164;5.400;2023-04-15T12:16:45;3.70;;;0.77;;
47103;SDS011;32853;52.164;5.400;2023-04-15T12:19:16;1.87;;;0.80;;
47103;SDS011;32853;52.164;5.400;2023-04-15T12:21:58;3.15;;;0.60;;
47103;SDS011;32853;52.164;5.400;2023-04-15T12:24:26;2.88;;;0.90;;
47103;SDS011;32853;52.164;5.400;2023-04-15T12:27:06;2.63;;;1.20;;
47103;SDS011;32853;52.164;5.400;2023-04-15T12:29:48;1.95;;;1.08;;
47103;SDS011;32853;52.164;5.400;2023-04-15T12:32:15;2.63;;;0.82;;
47103;SDS011;32853;52.164;5.400;2023-04-15T12:34:53;3.40;;;1.10;;
47103;SDS011;32853;52.164;5.400;2023-04-15T12:37:25;5.97;;;1.08;;
47103;SDS011;32853;52.164;5.400;2023-04-15T12:39:59;4.15;;;0.90;;
47103;SDS011;32853;52.164;5.400;2023-04-15T12:42:30;3.10;;;0.70;;
47103;SDS011;32853;52.164;5.400;2023-04-15T12:44:59;3.25;;;0.70;;
47103;SDS011;32853;52.164;5.400;2023-04-15T12:47:24;5.50;;;1.08;;
47103;SDS011;32853;52.164;5.400;2023-04-15T12:49:50;2.03;;;0.80;;
47103;SDS011;32853;52.164;5.400;2023-04-15T12:52:18;2.17;;;0.80;;
47103;SDS011;32853;52.164;5.400;2023-04-15T12:54:44;3.83;;;0.80;;
47103;SDS011;32853;52.164;5.400;2023-04-15T12:57:12;3.33;;;0.70;;
47103;SDS011;32853;52.164;5.400;2023-04-15T12:59:38;2.30;;;0.70;;
47103;SDS011;32853;52.164;5.400;2023-04-15T13:02:05;4.07;;;0.80;;
47103;SDS011;32853;52.164;5.400;2023-04-15T13:04:32;1.67;;;0.90;;
47103;SDS011;32853;52.164;5.400;2023-04-15T13:06:57;3.20;;;0.90;;
47103;SDS011;32853;52.164;5.400;2023-04-15T13:09:22;4.53;;;1.00;;
47103;SDS011;32853;52.164;5.400;2023-04-15T13:11:48;2.97;;;1.00;;
47103;SDS011;32853;52.164;5.400;2023-04-15T13:14:13;5.35;;;1.30;;
47103;SDS011;32853;52.164;5.400;2023-04-15T13:16:39;3.15;;;1.10;;
47103;SDS011;32853;52.164;5.400;2023-04-15T13:19:07;2.63;;;0.90;;
47103;SDS011;32853;52.164;5.400;2023-04-15T13:21:34;3.13;;;0.70;;
47103;SDS011;32853;52.164;5.400;2023-04-15T13:24:03;3.88;;;0.88;;
47103;SDS011;32853;52.164;5.400;2023-04-15T13:26:30;4.13;;;0.88;;
47103;SDS011;32853;52.164;5.400;2023-04-15T13:28:56;3.97;;;0.77;;
47103;SDS011;32853;52.164;5.400;2023-04-15T13:31:24;2.40;;;0.80;;
47103;SDS011;32853;52.164;5.400;2023-04-15T13:33:51;3.55;;;0.70;;
47103;SDS011;32853;52.164;5.400;2023-04-15T13:36:16;3.08;;;1.20;;
47103;SDS011;32853;52.164;5.400;2023-04-15T13:38:42;3.40;;;0.70;;
47103;SDS011;32853;52.164;5.400;2023-04-15T13:41:07;3.40;;;0.80;;
47103;SDS011;32853;52.164;5.400;2023-04-15T13:43:32;2.80;;;0.73;;
47103;SDS011;32853;52.164;5.400;2023-04-15T13:45:58;8.43;;;1.70;;
47103;SDS011;32853;52.164;5.400;2023-04-15T13:48:23;2.07;;;0.70;;
47103;SDS011;32853;52.164;5.400;2023-04-15T13:50:52;1.40;;;0.53;;
47103;SDS011;32853;52.164;5.400;2023-04-15T13:53:17;2.58;;;0.47;;
47103;SDS011;32853;52.164;5.400;2023-04-15T13:55:42;2.27;;;0.50;;
47103;SDS011;32853;52.164;5.400;2023-04-15T13:58:08;5.00;;;0.60;;
47103;SDS011;32853;52.164;5.400;2023-04-15T14:00:38;1.50;;;0.50;;
47103;SDS011;32853;52.164;5.400;2023-04-15T14:03:05;1.55;;;0.50;;
47103;SDS011;32853;52.164;5.400;2023-04-15T14:05:31;2.45;;;1.13;;
47103;SDS011;32853;52.164;5.400;2023-04-15T14:07:59;1.60;;;0.50;;
47103;SDS011;32853;52.164;5.400;2023-04-15T14:10:25;1.55;;;0.52;;
47103;SDS011;32853;52.164;5.400;2023-04-15T14:12:54;1.35;;;0.50;;
47103;SDS011;32853;52.164;5.400;2023-04-15T14:15:20;2.90;;;0.88;;
47103;SDS011;32853;52.164;5.400;2023-04-15T14:17:51;4.20;;;0.82;;
47103;SDS011;32853;52.164;5.400;2023-04-15T14:20:17;4.10;;;0.90;;
47103;SDS011;32853;52.164;5.400;2023-04-15T14:22:42;3.33;;;1.20;;
47103;SDS011;32853;52.164;5.400;2023-04-15T14:25:08;4.90;;;0.80;;
47103;SDS011;32853;52.164;5.400;2023-04-15T14:27:39;5.93;;;1.00;;
47103;SDS011;32853;52.164;5.400;2023-04-15T14:30:12;3.60;;;0.98;;
47103;SDS011;32853;52.164;5.400;2023-04-15T14:32:39;3.22;;;0.88;;
47103;SDS011;32853;52.164;5.400;2023-04-15T14:35:04;7.03;;;0.90;;
47103;SDS011;32853;52.164;5.400;2023-04-15T14:37:30;3.20;;;1.02;;
47103;SDS011;32853;52.164;5.400;2023-04-15T14:39:59;6.17;;;0.97;;
47103;SDS011;32853;52.164;5.400;2023-04-15T14:42:42;2.85;;;0.70;;
47103;SDS011;32853;52.164;5.400;2023-04-15T14:45:11;4.35;;;0.70;;
47103;SDS011;32853;52.164;5.400;2023-04-15T14:47:37;3.70;;;0.90;;
47103;SDS011;32853;52.164;5.400;2023-04-15T14:50:10;2.35;;;0.68;;
47103;SDS011;32853;52.164;5.400;2023-04-15T14:52:37;6.07;;;1.17;;
47103;SDS011;32853;52.164;5.400;2023-04-15T14:55:06;4.75;;;0.70;;
47103;SDS011;32853;52.164;5.400;2023-04-15T14:57:34;3.90;;;0.60;;
47103;SDS011;32853;52.164;5.400;2023-04-15T15:00:00;5.15;;;0.90;;
47103;SDS011;32853;52.164;5.400;2023-04-15T15:02:26;3.87;;;0.70;;
47103;SDS011;32853;52.164;5.400;2023-04-15T15:04:52;3.35;;;0.68;;
47103;SDS011;32853;52.164;5.400;2023-04-15T15:07:18;3.63;;;0.60;;
47103;SDS011;32853;52.164;5.400;2023-04-15T15:09:43;2.97;;;0.40;;
47103;SDS011;32853;52.164;5.400;2023-04-15T15:12:09;3.03;;;0.50;;
47103;SDS011;32853;52.164;5.400;2023-04-15T15:14:35;5.15;;;1.00;;
47103;SDS011;32853;52.164;5.400;2023-04-15T15:17:06;6.18;;;0.90;;
47103;SDS011;32853;52.164;5.400;2023-04-15T15:19:32;4.30;;;0.50;;
47103;SDS011;32853;52.164;5.400;2023-04-15T15:21:57;7.10;;;0.98;;